Weather observations for the past three days for
St. Paul Island, St. Paul Island Airport
Imperial (Metric)
Date Time (akdt) Wind (mph) Vis. (mi.) Weather Sky Cond. Temperature (ºF) Relative Humidity Wind Chill (°F) Heat Index (°F) Pressure Precipitation (in)
Air Dwpt 6 hour altimeter (in) sea level (mb) 1 hr 3 hr 6 hr
Max. Min.
08 01:53 E 12 10.00 Overcast OVC018 30.9 24.1 76% 22 30 1016.1
08 00:53 E 10 10.00 Overcast OVC023 30.9 23 72% 23 30.01 1016.4
07 23:53 NE 10 10.00 Overcast OVC019 30.9 24.1 76% 23 30.01 1016.4
07 22:53 E 13 10.00 Overcast OVC018 32 24.1 73% 23 30.01 1016.4
07 21:53 E 12 10.00 Overcast OVC019 32 24.1 34 32 73% 24 30.01 1016.4
07 20:53 NE 12 10.00 Overcast OVC020 32 24.1 73% 24 30.01 1016.4
07 19:53 E 12 10.00 Overcast OVC021 33.1 24.1 70% 25 30.02 1016.5
07 18:53 E 9 10.00 Overcast OVC017 33.1 24.1 70% 26 30.02 1016.6
07 17:53 E 15 10.00 Overcast OVC021 33.1 25 72% 24 30.02 1016.7
07 16:53 E 13 10.00 Overcast OVC013 33.1 26.1 75% 25 30.03 1017.1
07 15:53 E 15 10.00 Overcast OVC017 34 26.1 34 30.9 73% 25 30.04 1017.3
07 14:53 E 15 10.00 Overcast OVC017 34 26.1 73% 25 30.04 1017.2
07 13:53 E 13 5.00 Overcast with Haze BKN013 OVC019 33.1 28 82% 25 30.04 1017.3
07 12:53 E 15 10.00 Overcast OVC016 33.1 25 72% 24 30.04 1017.3
07 11:53 E 13 10.00 Overcast OVC016 32 25 75% 23 30.04 1017.3
07 10:53 E 13 10.00 Overcast OVC014 30.9 25 79% 22 30.04 1017.4
07 09:53 E 13 8.00 Overcast OVC015 30.9 26.1 30.9 30 82% 22 30.04 1017.4
07 08:53 E 16 7.00 Light Snow OVC014 30 25 82% 19 30.04 1017.2
07 07:53 E 15 10.00 Overcast OVC014 30 24.1 79% 20 30.03 1017.1
07 06:53 E 15 10.00 Overcast OVC014 30 24.1 79% 20 30.04 1017.3
07 05:53 E 13 10.00 Overcast OVC013 30 25 82% 21 30.05 1017.5
07 04:53 E 13 10.00 Overcast OVC016 30 24.1 79% 21 30.05 1017.8
07 03:53 E 13 10.00 Overcast OVC016 30.9 25 32 30 79% 22 30.06 1018.0
07 02:53 E 12 7.00 Overcast OVC015 30 27 88% 21 30.07 1018.3
07 01:53 E 12 10.00 Overcast OVC013 30 25 82% 21 30.06 1018.1
07 00:53 E 12 10.00 Overcast OVC017 30 25 82% 21 30.07 1018.2
06 23:53 E 14 10.00 Overcast FEW013 OVC019 30.9 27 85% 21 30.06 1018.0
06 22:53 E 9 4.00 Light Snow Fog/Mist OVC016 30 27 88% 22 30.06 1018.0
06 21:53 E 8 10.00 Overcast OVC017 30.9 24.1 35.1 30.9 76% 24 30.06 1018.1
06 20:53 E 10 10.00 Overcast OVC021 32 25 75% 24 30.07 1018.3
06 19:53 E 13 10.00 Overcast FEW013 OVC022 33.1 25 72% 25 30.06 1018.1
06 18:53 E 10 10.00 Mostly Cloudy FEW014 BKN022 35.1 26.1 70% 28 30.06 1018.0
06 17:53 E 12 10.00 Overcast OVC018 34 25 70% 26 30.07 1018.2
06 16:53 E 9 10.00 Overcast OVC019 34 24.1 67% 27 30.08 1018.5
06 15:53 E 10 10.00 Overcast OVC022 34 26.1 35.1 32 73% 27 30.09 1018.9
06 14:53 E 12 10.00 Overcast OVC025 34 26.1 73% 26 30.09 1019.1
06 13:53 E 13 10.00 Overcast FEW012 OVC025 34 26.1 73% 26 30.1 1019.4
06 12:53 E 14 10.00 Overcast FEW012 OVC024 33.1 27 78% 24 30.1 1019.5
06 11:53 E 14 10.00 Overcast OVC023 33.1 27 78% 24 30.11 1019.7
06 10:53 E 10 10.00 Overcast OVC024 32 28 85% 24 30.12 1019.9
06 09:53 E 9 10.00 Overcast OVC023 32 28 32 24.1 85% 25 30.12 1020.0
06 08:53 E 12 10.00 Overcast OVC024 32 28 85% 24 30.12 1019.9
06 07:53 E 9 10.00 Overcast OVC024 30.9 28 89% 24 30.11 1019.7
06 06:53 E 5 10.00 Overcast OVC025 30.9 28.9 92% 27 30.11 1019.7
06 05:53 E 8 10.00 Overcast OVC026 30.9 28.9 92% 24 30.11 1019.7
06 04:53 E 8 10.00 Overcast OVC025 30.9 28.9 92% 24 30.12 1020.1
06 03:53 NE 7 10.00 Fair CLR 27 26.1 37 26.1 96% 20 30.13 1020.3
06 02:53 NE 3 10.00 Partly Cloudy SCT026 30 28.9 96% 30.13 1020.4
06 01:53 Calm 10.00 Overcast OVC026 28 27 96% 30.14 1020.7
06 00:53 N 3 10.00 Mostly Cloudy BKN018 28 26.1 92% 30.14 1020.6
05 23:53 Calm 10.00 Fair CLR 27 25 92% 30.14 1020.8
05 22:53 N 3 10.00 Fair CLR 33.1 28.9 85% 30.14 1020.8
05 21:53 NW 7 10.00 A Few Clouds FEW018 37 28.9 42.1 37 73% 32 30.15 1020.9
05 20:53 NW 8 10.00 Mostly Cloudy BKN020 39 28.9 67% 34 30.14 1020.8
05 19:53 NW 9 10.00 Partly Cloudy SCT023 39.9 28 63% 34 30.14 1020.8
05 18:53 NW 10 10.00 Partly Cloudy SCT024 39.9 28 63% 34 30.14 1020.8
05 17:53 NW 13 10.00 Partly Cloudy SCT023 SCT027 41 28 60% 34 30.14 1020.8
05 16:53 NW 14 10.00 Mostly Cloudy FEW023 SCT029 BKN045 41 28 60% 34 30.15 1021.0
05 15:53 NW 13 10.00 Overcast SCT019 OVC046 39.9 30 42.1 35.1 68% 33 30.16 1021.2
05 14:53 NW 14 10.00 Overcast BKN019 BKN024 OVC048 39.9 28.9 65% 33 30.16 1021.3
05 13:53 NW 14 10.00 Overcast SCT018 SCT023 OVC049 41 30 65% 34 30.16 1021.3
05 12:53 N 15 10.00 Mostly Cloudy BKN015 BKN022 BKN050 39.9 30.9 70% 32 30.16 1021.4
05 11:53 NW 13 10.00 Mostly Cloudy BKN044 39.9 30 68% 33 30.16 1021.3
05 10:53 N 16 10.00 Overcast BKN010 OVC044 37 30 76% 28 30.16 1021.5
05 09:53 NW 12 10.00 Overcast BKN009 BKN018 OVC048 35.1 30.9 35.1 33.1 85% 28 30.17 1021.6
05 08:53 N 10 10.00 Overcast OVC008 33.1 30.9 92% 26 30.16 1021.4
05 07:53 N 12 10.00 Overcast OVC008 33.1 30 89% 25 30.15 1020.9
05 06:53 N 13 10.00 Overcast OVC009 33.1 30 89% 25 30.13 1020.5
05 05:53 NW 15 10.00 Overcast OVC010 33.1 30 89% 24 30.12 1020.0
05 04:53 N 13 10.00 Overcast SCT011 BKN020 OVC042 33.1 30 89% 25 30.11 1019.8
05 03:53 N 12 10.00 Overcast OVC011 33.1 28.9 34 32 85% 25 30.12 1020.0
05 02:53 N 18 10.00 Overcast OVC010 33.1 28.9 85% 23 30.12 1020.0
Date Time (akdt) Wind (mph) Vis. (mi.) Weather Sky Cond. Air Dwpt Max. Min. Relative Humidity Wind Chill (°F) Heat Index (°F) altimeter (in) sea level (mb) 1 hr 3 hr 6 hr
6 hour
Temperature (ºF) Pressure Precipitation (in)